Time;durP1;ratioP1;P1;durP2;ratioP2;P2;SDS_P1;SDS_P2;PMS_P1;PMS_P2;Temp;Humidity;BMP_temperature;BMP_pressure;BME280_temperature;BME280_humidity;BME280_pressure;Samples;Min_cycle;Max_cycle;Signal;HPM_P1;HPM_P2
2022/03/10 00:01:13;;;;;;;22.33;12.63;;;5.20;99.90;;;;;;5073885;28;20072;-77
2022/03/10 00:03:42;;;;;;;19.65;12.73;;;5.20;99.90;;;;;;5075588;28;20032;-77
2022/03/10 00:06:07;;;;;;;21.60;12.38;;;5.20;99.90;;;;;;5050263;28;20057;-78
2022/03/10 00:08:33;;;;;;;21.13;13.00;;;5.20;99.90;;;;;;5055427;28;20049;-78
2022/03/10 00:10:59;;;;;;;19.48;12.70;;;5.70;99.90;;;;;;5053364;28;20049;-79
2022/03/10 00:13:26;;;;;;;24.77;12.38;;;5.00;99.90;;;;;;5055375;28;20144;-79
2022/03/10 00:15:52;;;;;;;20.98;13.32;;;5.20;99.90;;;;;;5057476;28;20044;-78
2022/03/10 00:18:19;;;;;;;20.00;12.70;;;5.20;99.90;;;;;;5090835;28;20511;-78
2022/03/10 00:20:45;;;;;;;20.65;12.85;;;5.20;99.90;;;;;;5070097;28;20041;-78
2022/03/10 00:23:11;;;;;;;20.90;12.70;;;5.30;99.90;;;;;;5021025;28;20052;-78
2022/03/10 00:25:37;;;;;;;19.20;12.98;;;5.10;99.90;;;;;;5072867;28;20498;-78
2022/03/10 00:28:03;;;;;;;21.92;12.98;;;5.10;99.90;;;;;;5073612;28;20106;-78
2022/03/10 00:30:29;;;;;;;19.77;12.65;;;5.10;99.90;;;;;;5035968;28;20076;-78
2022/03/10 00:32:55;;;;;;;20.25;12.73;;;5.10;99.90;;;;;;5037059;28;20073;-78
2022/03/10 00:35:23;;;;;;;21.58;13.43;;;5.10;99.90;;;;;;5037005;28;20037;-78
2022/03/10 00:37:49;;;;;;;19.48;12.73;;;5.00;99.90;;;;;;5037109;28;20045;-78
2022/03/10 00:40:16;;;;;;;22.02;12.88;;;5.40;99.90;;;;;;5047132;28;20040;-77
2022/03/10 00:42:42;;;;;;;21.83;13.00;;;5.60;99.90;;;;;;5073146;28;20037;-77
2022/03/10 00:45:12;;;;;;;22.23;13.07;;;5.50;99.90;;;;;;5070678;28;20041;-77
2022/03/10 00:47:39;;;;;;;18.75;13.13;;;5.50;99.90;;;;;;5076479;28;20128;-77
2022/03/10 00:50:07;;;;;;;21.77;12.80;;;5.50;99.90;;;;;;5094610;28;20075;-77
2022/03/10 00:52:33;;;;;;;26.85;13.52;;;4.90;99.90;;;;;;5060013;28;20047;-77
2022/03/10 00:54:59;;;;;;;19.25;12.20;;;4.90;99.90;;;;;;5059753;28;20044;-77
2022/03/10 00:57:25;;;;;;;21.88;12.55;;;4.90;99.90;;;;;;5059860;28;20088;-78
2022/03/10 00:59:50;;;;;;;18.70;13.77;;;4.90;99.90;;;;;;5075965;28;20123;-78
2022/03/10 01:02:19;;;;;;;20.75;13.48;;;4.80;99.90;;;;;;5058736;28;20174;-77
2022/03/10 01:04:45;;;;;;;19.08;12.77;;;4.80;99.90;;;;;;5060425;28;20044;-78
2022/03/10 01:07:11;;;;;;;24.30;12.73;;;4.70;99.90;;;;;;5056456;28;20051;-78
2022/03/10 01:09:36;;;;;;;20.40;12.50;;;4.80;99.90;;;;;;5054420;28;20430;-78
2022/03/10 01:12:02;;;;;;;24.75;13.23;;;4.70;99.90;;;;;;5076170;28;20039;-79
2022/03/10 01:14:31;;;;;;;20.00;13.57;;;4.70;99.90;;;;;;5093914;28;20121;-79
2022/03/10 01:16:58;;;;;;;22.05;13.15;;;4.60;99.90;;;;;;5094064;28;20067;-79
2022/03/10 01:19:26;;;;;;;21.25;13.27;;;4.60;99.90;;;;;;5076162;28;20043;-78
2022/03/10 01:21:53;;;;;;;20.88;12.75;;;4.60;99.90;;;;;;5074932;28;20036;-76
2022/03/10 01:24:19;;;;;;;20.25;13.15;;;4.60;99.90;;;;;;5059713;28;20111;-76
2022/03/10 01:26:48;;;;;;;22.20;12.65;;;4.50;99.90;;;;;;5075717;28;20065;-78
2022/03/10 01:29:14;;;;;;;25.35;13.25;;;4.50;99.90;;;;;;5093825;28;20039;-77
2022/03/10 01:31:40;;;;;;;20.35;12.60;;;4.40;99.90;;;;;;5072518;28;20040;-78
2022/03/10 01:34:06;;;;;;;23.35;13.55;;;4.40;99.90;;;;;;5051749;28;20121;-78
2022/03/10 01:36:32;;;;;;;30.02;13.55;;;4.40;99.90;;;;;;5075883;28;20097;-78
2022/03/10 01:38:57;;;;;;;25.88;13.85;;;4.40;99.90;;;;;;5056578;28;20036;-78
2022/03/10 01:41:23;;;;;;;22.35;13.13;;;5.00;99.90;;;;;;5075810;28;20369;-77
2022/03/10 01:44:08;;;;;;;23.58;13.32;;;4.30;99.90;;;;;;5093697;28;20047;-78
2022/03/10 01:46:35;;;;;;;19.08;12.93;;;4.30;99.90;;;;;;5093585;28;20052;-77
2022/03/10 01:49:01;;;;;;;22.73;12.60;;;5.10;99.90;;;;;;5075407;28;20048;-77
2022/03/10 01:51:29;;;;;;;22.23;14.02;;;4.20;99.90;;;;;;5055504;28;20123;-77
2022/03/10 01:53:55;;;;;;;21.63;12.57;;;4.20;99.90;;;;;;5073242;28;20504;-77
2022/03/10 01:56:23;;;;;;;22.40;13.25;;;4.10;99.90;;;;;;5071899;28;20097;-77
2022/03/10 01:58:50;;;;;;;20.63;13.25;;;4.10;99.90;;;;;;5093498;28;20036;-77
2022/03/10 02:01:16;;;;;;;20.75;12.98;;;4.00;99.90;;;;;;5059227;28;20055;-77
2022/03/10 02:03:42;;;;;;;22.90;13.65;;;4.00;99.90;;;;;;5075073;28;20464;-77
2022/03/10 02:06:09;;;;;;;22.90;13.18;;;4.00;99.90;;;;;;5071732;28;20037;-77
2022/03/10 02:11:20;;;;;;;23.90;13.15;;;3.90;99.90;;;;;;5073955;28;20083;-77
2022/03/10 02:13:46;;;;;;;22.10;13.70;;;3.90;99.90;;;;;;5058464;28;20048;-77
2022/03/10 02:18:58;;;;;;;19.38;13.80;;;3.80;99.90;;;;;;5073008;28;20048;-77
2022/03/10 02:21:24;;;;;;;21.75;13.23;;;3.80;99.90;;;;;;5087685;28;20044;-77
2022/03/10 02:23:50;;;;;;;18.38;13.25;;;4.30;99.90;;;;;;5042783;28;20041;-77
2022/03/10 02:26:16;;;;;;;21.40;13.27;;;3.80;99.90;;;;;;5088971;28;20032;-77
2022/03/10 02:28:42;;;;;;;20.73;13.63;;;4.50;99.90;;;;;;5092450;28;20105;-77
2022/03/10 02:31:09;;;;;;;21.70;13.25;;;3.80;99.90;;;;;;5092816;28;20552;-77
2022/03/10 02:33:35;;;;;;;22.70;13.63;;;3.80;99.90;;;;;;5074557;28;20079;-77
2022/03/10 02:36:01;;;;;;;19.88;12.93;;;3.80;99.90;;;;;;5074532;28;20086;-77
2022/03/10 02:38:27;;;;;;;18.88;12.82;;;3.90;99.90;;;;;;5056734;28;20041;-77
2022/03/10 02:40:53;;;;;;;23.92;14.07;;;3.80;99.90;;;;;;5074533;28;20393;-77
2022/03/10 02:43:20;;;;;;;21.13;13.63;;;3.70;99.90;;;;;;5090208;28;20039;-77
2022/03/10 02:45:50;;;;;;;22.27;13.70;;;3.70;99.90;;;;;;5092786;28;20039;-77
2022/03/10 02:48:16;;;;;;;25.15;13.27;;;3.70;99.90;;;;;;5092226;28;20044;-77
2022/03/10 02:50:43;;;;;;;19.25;13.27;;;4.30;99.90;;;;;;5091129;28;20036;-77
2022/03/10 02:53:16;;;;;;;18.95;13.35;;;4.50;99.90;;;;;;5074467;28;20040;-77
2022/03/10 02:55:43;;;;;;;20.30;13.05;;;3.70;99.90;;;;;;5091463;28;20127;-77
2022/03/10 02:58:09;;;;;;;27.73;13.65;;;3.60;99.90;;;;;;5057309;28;20036;-77
2022/03/10 03:00:35;;;;;;;24.33;12.98;;;3.60;99.90;;;;;;5056748;28;20372;-77
2022/03/10 03:03:00;;;;;;;23.25;13.73;;;3.60;99.90;;;;;;5074290;28;20046;-77
2022/03/10 03:05:26;;;;;;;21.80;14.18;;;3.60;99.90;;;;;;5057808;28;20394;-77
2022/03/10 03:07:52;;;;;;;19.60;13.68;;;3.60;99.90;;;;;;5057479;28;20040;-76
2022/03/10 03:10:18;;;;;;;20.75;12.65;;;3.60;99.90;;;;;;5074612;28;20036;-77
2022/03/10 03:12:50;;;;;;;22.60;13.82;;;3.60;99.90;;;;;;5074347;28;20040;-77
2022/03/10 03:15:17;;;;;;;22.98;13.40;;;3.60;99.90;;;;;;5073477;28;20096;-77
2022/03/10 03:17:43;;;;;;;19.45;13.52;;;3.60;99.90;;;;;;5053744;28;20043;-77
2022/03/10 03:20:14;;;;;;;23.60;13.20;;;4.10;99.90;;;;;;5054341;28;20422;-77
2022/03/10 03:22:40;;;;;;;23.55;13.55;;;3.60;99.90;;;;;;5054312;28;20079;-77
2022/03/10 03:25:07;;;;;;;20.60;13.90;;;3.60;99.90;;;;;;5054443;28;20040;-77
2022/03/10 03:27:32;;;;;;;25.40;15.00;;;3.60;99.90;;;;;;5026414;28;20045;-77
2022/03/10 03:29:58;;;;;;;22.88;13.77;;;4.20;99.90;;;;;;5057598;28;20051;-77
2022/03/10 03:32:24;;;;;;;21.48;13.75;;;3.80;99.90;;;;;;5058075;28;20334;-77
2022/03/10 03:34:49;;;;;;;20.48;13.10;;;3.50;99.90;;;;;;5095764;28;20040;-77
2022/03/10 03:37:15;;;;;;;20.75;13.45;;;3.50;99.90;;;;;;5077741;28;20495;-76
2022/03/10 03:39:41;;;;;;;20.33;13.07;;;3.50;99.90;;;;;;5041236;28;20039;-76
2022/03/10 03:42:06;;;;;;;25.63;13.82;;;3.50;99.90;;;;;;5075857;28;20040;-77
2022/03/10 03:44:32;;;;;;;19.67;12.55;;;3.60;99.90;;;;;;5057928;28;20067;-76
2022/03/10 03:46:58;;;;;;;20.98;13.25;;;3.50;99.90;;;;;;5079032;28;20048;-76
2022/03/10 03:49:24;;;;;;;20.58;14.45;;;3.40;99.90;;;;;;5095103;28;20044;-76
2022/03/10 03:51:49;;;;;;;23.42;14.13;;;4.30;99.90;;;;;;5077269;28;20046;-76
2022/03/10 03:54:15;;;;;;;24.55;13.23;;;3.40;99.90;;;;;;5061324;28;20032;-77
2022/03/10 03:56:41;;;;;;;20.63;13.63;;;3.40;99.90;;;;;;5077438;28;20028;-76
2022/03/10 03:59:06;;;;;;;19.92;14.02;;;3.40;99.90;;;;;;5077362;28;20094;-77
2022/03/10 04:01:35;;;;;;;21.73;13.52;;;3.30;99.90;;;;;;5077580;28;20047;-76
2022/03/10 04:04:01;;;;;;;22.00;13.55;;;3.40;99.90;;;;;;5077773;28;20040;-77
2022/03/10 04:06:27;;;;;;;21.83;13.82;;;3.40;99.90;;;;;;5093483;28;20032;-76
2022/03/10 04:08:53;;;;;;;21.88;13.85;;;3.30;99.90;;;;;;5039418;28;20052;-76
2022/03/10 04:11:18;;;;;;;19.65;13.48;;;3.30;99.90;;;;;;5069382;28;20132;-76
2022/03/10 04:13:45;;;;;;;22.05;12.90;;;3.30;99.90;;;;;;5077337;28;20177;-76
2022/03/10 04:16:11;;;;;;;20.98;13.70;;;3.60;99.90;;;;;;5077333;28;20062;-77
2022/03/10 04:18:36;;;;;;;23.48;13.43;;;3.30;99.90;;;;;;5040007;28;20040;-77
2022/03/10 04:21:10;;;;;;;19.10;12.75;;;3.30;99.90;;;;;;5051267;28;20395;-77
2022/03/10 04:23:36;;;;;;;26.15;13.38;;;3.30;99.90;;;;;;5060364;28;20488;-77
2022/03/10 04:26:01;;;;;;;22.80;13.85;;;3.20;99.90;;;;;;5095013;28;20083;-77
2022/03/10 04:28:28;;;;;;;18.98;12.75;;;3.20;99.90;;;;;;5095288;28;20108;-77
2022/03/10 04:30:54;;;;;;;19.85;12.80;;;3.20;99.90;;;;;;5077266;28;20551;-78
2022/03/10 04:33:19;;;;;;;23.60;12.77;;;3.20;99.90;;;;;;5076640;28;20140;-78
2022/03/10 04:35:45;;;;;;;22.15;12.65;;;3.70;99.90;;;;;;5056945;28;20090;-78
2022/03/10 04:38:11;;;;;;;25.90;13.00;;;3.30;99.90;;;;;;5049885;28;20400;-77
2022/03/10 04:40:37;;;;;;;23.02;12.45;;;3.20;99.90;;;;;;5068509;28;20048;-78
2022/03/10 04:43:03;;;;;;;22.08;13.90;;;3.10;99.90;;;;;;5056135;28;20119;-77
2022/03/10 04:45:29;;;;;;;21.50;13.20;;;3.10;99.90;;;;;;5044535;28;20093;-78
2022/03/10 04:47:55;;;;;;;20.80;14.25;;;3.50;99.90;;;;;;5068629;28;20052;-78
2022/03/10 04:50:21;;;;;;;21.83;13.30;;;3.20;99.90;;;;;;5060215;28;20044;-78
2022/03/10 04:52:50;;;;;;;22.90;13.48;;;3.10;99.90;;;;;;5076608;28;20119;-77
2022/03/10 04:55:16;;;;;;;24.02;13.40;;;3.10;99.90;;;;;;5075883;28;20044;-77
2022/03/10 04:57:42;;;;;;;21.95;13.18;;;3.10;99.90;;;;;;5076377;28;20051;-77
2022/03/10 05:00:14;;;;;;;22.73;13.68;;;3.10;99.90;;;;;;5059916;28;20122;-77
2022/03/10 05:02:40;;;;;;;20.65;13.77;;;3.10;99.90;;;;;;5059449;28;20039;-77
2022/03/10 05:05:10;;;;;;;19.75;14.10;;;3.10;99.90;;;;;;5093262;28;20119;-77
2022/03/10 05:07:35;;;;;;;21.60;13.23;;;3.10;99.90;;;;;;5072693;28;20044;-77
2022/03/10 05:10:02;;;;;;;20.85;12.85;;;3.10;99.90;;;;;;5056387;28;20093;-77
2022/03/10 05:12:28;;;;;;;21.10;12.48;;;3.10;99.90;;;;;;5083139;28;20037;-77
2022/03/10 05:14:53;;;;;;;18.35;12.98;;;3.10;99.90;;;;;;5059339;28;20510;-77
2022/03/10 05:17:21;;;;;;;20.42;13.32;;;3.10;99.90;;;;;;5059148;28;20040;-78
2022/03/10 05:19:47;;;;;;;24.85;13.13;;;3.30;99.90;;;;;;5059681;28;20111;-77
2022/03/10 05:22:12;;;;;;;22.88;12.75;;;3.10;99.90;;;;;;5059351;28;20131;-77
2022/03/10 05:24:38;;;;;;;20.58;13.48;;;3.10;99.90;;;;;;5076259;28;20043;-77
2022/03/10 05:27:04;;;;;;;19.92;13.45;;;3.10;99.90;;;;;;5093958;28;20089;-77
2022/03/10 05:29:29;;;;;;;22.95;12.98;;;3.10;99.90;;;;;;5075029;28;20130;-79
2022/03/10 05:31:55;;;;;;;21.90;12.68;;;3.10;99.90;;;;;;5059168;28;20506;-78
2022/03/10 05:34:21;;;;;;;20.42;13.63;;;3.10;99.90;;;;;;5059079;28;20040;-79
2022/03/10 05:36:46;;;;;;;24.42;13.45;;;3.10;99.90;;;;;;5075384;28;20089;-77
2022/03/10 05:39:12;;;;;;;21.05;12.45;;;3.10;99.90;;;;;;5076015;28;20040;-77
2022/03/10 05:41:38;;;;;;;18.85;12.77;;;3.10;99.90;;;;;;5071879;28;20503;-77
2022/03/10 05:44:04;;;;;;;22.40;12.55;;;3.10;99.90;;;;;;5057621;28;20086;-77
2022/03/10 05:46:30;;;;;;;21.17;13.18;;;3.10;99.90;;;;;;5075228;28;20550;-77
2022/03/10 05:48:56;;;;;;;21.17;13.20;;;3.10;99.90;;;;;;5093840;28;20044;-77
2022/03/10 05:51:21;;;;;;;26.88;13.18;;;3.10;99.90;;;;;;5075305;28;20075;-77
2022/03/10 05:53:51;;;;;;;20.92;12.85;;;3.10;99.90;;;;;;5074914;28;20069;-77
2022/03/10 05:56:17;;;;;;;28.60;13.50;;;3.00;99.90;;;;;;5075372;28;20434;-77
2022/03/10 05:58:43;;;;;;;23.52;13.27;;;3.00;99.90;;;;;;5058462;28;20044;-77
2022/03/10 06:01:08;;;;;;;23.40;13.38;;;3.10;99.90;;;;;;5058732;28;20040;-77
2022/03/10 06:03:34;;;;;;;21.38;14.18;;;3.00;99.90;;;;;;5057665;28;20044;-78
2022/03/10 06:06:00;;;;;;;21.05;12.98;;;3.00;99.90;;;;;;5041295;28;20040;-77
2022/03/10 06:08:26;;;;;;;19.17;13.25;;;3.00;99.90;;;;;;5058679;28;20040;-77
2022/03/10 06:10:51;;;;;;;23.58;13.20;;;3.60;99.90;;;;;;5092105;28;20066;-77
2022/03/10 06:13:17;;;;;;;22.25;12.70;;;3.60;99.90;;;;;;5075242;28;20480;-78
2022/03/10 06:15:44;;;;;;;22.20;13.35;;;3.10;99.90;;;;;;5045432;28;20123;-77
2022/03/10 06:18:10;;;;;;;21.85;13.30;;;3.10;99.90;;;;;;5072943;28;20052;-77
2022/03/10 06:20:38;;;;;;;26.25;14.18;;;2.50;99.90;;;;;;5057818;28;20100;-77
2022/03/10 06:23:04;;;;;;;23.92;13.88;;;2.90;99.90;;;;;;5058448;28;20032;-77
2022/03/10 06:25:30;;;;;;;25.50;13.65;;;3.40;99.90;;;;;;5091678;28;20028;-77
2022/03/10 06:27:56;;;;;;;25.55;14.43;;;3.00;99.90;;;;;;5058051;28;20126;-77
2022/03/10 06:30:22;;;;;;;21.58;14.20;;;2.90;99.90;;;;;;5074853;28;20135;-76
2022/03/10 06:32:47;;;;;;;19.52;13.48;;;2.90;99.90;;;;;;5074555;28;20047;-77
2022/03/10 06:35:13;;;;;;;21.02;13.25;;;2.90;99.90;;;;;;5075016;28;20044;-77
2022/03/10 06:37:39;;;;;;;21.77;13.80;;;2.90;99.90;;;;;;5091677;28;20082;-77
2022/03/10 06:40:06;;;;;;;23.50;13.70;;;2.90;99.90;;;;;;5048919;28;20419;-77
2022/03/10 06:42:32;;;;;;;23.08;13.88;;;2.90;99.90;;;;;;5058173;28;20535;-77
2022/03/10 06:44:58;;;;;;;26.27;15.80;;;2.90;99.90;;;;;;5074867;28;20101;-76
2022/03/10 06:47:24;;;;;;;26.13;13.77;;;2.90;99.90;;;;;;5073910;28;20063;-77
2022/03/10 06:49:49;;;;;;;30.67;13.82;;;2.90;99.90;;;;;;5072902;28;20036;-75
2022/03/10 06:52:19;;;;;;;31.70;13.93;;;2.90;99.90;;;;;;5074234;28;20067;-72
2022/03/10 06:54:44;;;;;;;24.35;13.55;;;2.90;99.90;;;;;;5091504;28;20032;-73
2022/03/10 06:57:13;;;;;;;24.63;14.10;;;2.90;99.90;;;;;;5092499;28;20109;-74
2022/03/10 06:59:39;;;;;;;23.27;13.65;;;2.90;99.90;;;;;;5074026;28;20122;-72
2022/03/10 07:02:05;;;;;;;28.88;14.73;;;3.00;99.90;;;;;;5074154;28;20127;-72
2022/03/10 07:04:31;;;;;;;23.50;13.93;;;3.00;99.90;;;;;;5091507;28;20446;-72
2022/03/10 07:06:57;;;;;;;24.60;14.57;;;3.10;99.90;;;;;;5058815;28;20122;-72
2022/03/10 07:09:22;;;;;;;28.40;13.95;;;3.10;99.90;;;;;;5061489;28;20123;-73
2022/03/10 07:11:48;;;;;;;26.73;14.68;;;3.60;99.90;;;;;;5076188;28;20041;-76
2022/03/10 07:14:14;;;;;;;19.52;13.50;;;3.20;99.90;;;;;;5071544;28;20448;-76
2022/03/10 07:16:40;;;;;;;23.77;13.65;;;3.20;99.90;;;;;;5077428;28;20039;-76
2022/03/10 07:19:09;;;;;;;25.67;13.70;;;3.20;99.90;;;;;;5060227;28;20043;-76
2022/03/10 07:21:35;;;;;;;20.73;13.73;;;3.20;99.90;;;;;;5078630;28;20036;-76
2022/03/10 07:24:00;;;;;;;24.15;14.13;;;3.30;99.90;;;;;;5074909;28;20079;-75
2022/03/10 07:26:26;;;;;;;23.63;14.52;;;3.30;99.90;;;;;;5047241;28;20424;-76
2022/03/10 07:28:52;;;;;;;23.65;13.98;;;3.20;99.90;;;;;;5076842;28;20395;-75
2022/03/10 07:31:18;;;;;;;38.60;13.75;;;3.40;99.90;;;;;;5073725;28;20494;-75
2022/03/10 07:33:44;;;;;;;22.17;13.85;;;3.40;99.90;;;;;;5057456;28;20047;-75
2022/03/10 07:36:10;;;;;;;23.63;13.75;;;3.40;99.90;;;;;;5077395;28;20050;-76
2022/03/10 07:38:36;;;;;;;21.40;13.20;;;3.70;99.90;;;;;;5061176;28;20288;-73
2022/03/10 07:41:02;;;;;;;24.80;14.27;;;3.60;99.90;;;;;;5076502;28;20093;-73
2022/03/10 07:43:28;;;;;;;22.95;13.48;;;3.60;99.90;;;;;;5077825;28;20054;-73
2022/03/10 07:45:53;;;;;;;23.58;14.52;;;3.90;99.90;;;;;;5095500;28;20040;-74
2022/03/10 07:48:21;;;;;;;21.33;13.93;;;3.70;99.90;;;;;;5094964;28;20495;-74
2022/03/10 07:50:47;;;;;;;22.13;13.52;;;3.90;99.90;;;;;;5077064;28;20072;-74
2022/03/10 07:53:13;;;;;;;27.67;13.40;;;3.90;99.90;;;;;;5094182;28;20111;-73
2022/03/10 07:55:38;;;;;;;21.48;13.98;;;3.90;99.90;;;;;;5095362;28;20064;-73
2022/03/10 07:58:04;;;;;;;25.25;13.93;;;4.30;99.90;;;;;;5077095;28;20048;-74
2022/03/10 08:00:32;;;;;;;23.35;13.60;;;4.00;99.90;;;;;;5060268;28;20082;-73
2022/03/10 08:02:57;;;;;;;23.92;14.13;;;4.10;99.90;;;;;;5060186;28;20071;-73
2022/03/10 08:05:23;;;;;;;20.20;13.63;;;4.30;99.90;;;;;;5056578;28;20062;-73
2022/03/10 08:07:49;;;;;;;23.38;13.63;;;4.20;99.90;;;;;;5076098;28;20036;-73
2022/03/10 08:10:15;;;;;;;22.10;14.43;;;4.30;99.90;;;;;;5077073;28;20040;-74
2022/03/10 08:12:40;;;;;;;23.20;14.68;;;4.30;99.90;;;;;;5059384;28;20051;-76
2022/03/10 08:15:10;;;;;;;26.52;14.85;;;4.30;99.90;;;;;;5077306;28;20040;-76
2022/03/10 08:17:37;;;;;;;22.65;13.85;;;4.40;99.90;;;;;;5076950;28;20059;-76
2022/03/10 08:20:03;;;;;;;22.88;14.23;;;4.40;99.90;;;;;;5076052;28;20186;-74
2022/03/10 08:22:29;;;;;;;25.80;13.82;;;4.50;99.90;;;;;;5095072;28;20199;-76
2022/03/10 08:24:55;;;;;;;28.67;14.50;;;4.60;99.90;;;;;;5095052;28;20476;-76
2022/03/10 08:27:20;;;;;;;25.33;13.43;;;4.60;99.90;;;;;;5060538;28;20119;-77
2022/03/10 08:29:46;;;;;;;24.92;14.20;;;4.70;99.90;;;;;;5076292;28;20090;-77
2022/03/10 08:32:13;;;;;;;23.75;14.35;;;4.70;99.90;;;;;;5077582;28;20036;-76
2022/03/10 08:34:42;;;;;;;22.05;14.02;;;4.80;99.90;;;;;;5077392;28;20480;-76
2022/03/10 08:37:08;;;;;;;23.67;14.73;;;4.80;99.90;;;;;;5040179;28;20040;-77
2022/03/10 08:39:34;;;;;;;22.17;14.18;;;4.90;99.90;;;;;;5077573;28;20043;-72
2022/03/10 08:42:02;;;;;;;25.90;13.48;;;4.90;99.90;;;;;;5095019;28;20578;-73
2022/03/10 08:44:28;;;;;;;27.67;14.35;;;5.00;99.90;;;;;;5060598;28;20506;-74
2022/03/10 08:46:53;;;;;;;22.33;14.07;;;5.40;99.90;;;;;;5056905;28;20048;-77
2022/03/10 08:49:21;;;;;;;20.65;13.40;;;5.20;99.90;;;;;;5071780;28;20040;-76
2022/03/10 08:51:48;;;;;;;20.77;13.85;;;5.20;99.90;;;;;;5076296;28;20131;-78
2022/03/10 08:54:16;;;;;;;26.40;14.77;;;5.20;99.90;;;;;;5044086;28;20493;-74
2022/03/10 08:56:42;;;;;;;23.23;14.57;;;5.30;99.90;;;;;;5059604;28;20032;-77
2022/03/10 08:59:08;;;;;;;23.50;14.35;;;5.40;99.90;;;;;;5075883;28;20136;-73
2022/03/10 09:01:34;;;;;;;21.90;14.82;;;5.40;99.90;;;;;;5088585;28;20042;-78
2022/03/10 09:04:00;;;;;;;20.17;14.20;;;5.50;99.90;;;;;;5058511;28;20036;-77
2022/03/10 09:06:26;;;;;;;20.45;14.68;;;5.50;99.90;;;;;;5075761;28;20036;-75
2022/03/10 09:08:51;;;;;;;22.58;14.68;;;5.70;99.90;;;;;;5075632;28;20036;-72
2022/03/10 09:11:17;;;;;;;20.55;14.43;;;5.70;99.90;;;;;;5085720;28;20392;-75
2022/03/10 09:13:48;;;;;;;19.80;14.02;;;5.80;99.90;;;;;;5074277;28;20128;-76
2022/03/10 09:16:18;;;;;;;25.02;14.80;;;5.80;99.90;;;;;;5076176;28;20189;-77
2022/03/10 09:18:45;;;;;;;25.02;15.55;;;5.90;99.90;;;;;;5074747;28;20052;-73
2022/03/10 09:21:15;;;;;;;24.33;14.00;;;6.20;99.90;;;;;;5050611;28;20040;-74
2022/03/10 09:23:41;;;;;;;23.15;14.23;;;6.00;99.90;;;;;;5056615;28;20059;-74
2022/03/10 09:26:06;;;;;;;23.70;13.75;;;6.10;99.90;;;;;;5055280;28;20028;-77
2022/03/10 09:28:33;;;;;;;21.88;14.45;;;6.70;99.90;;;;;;5074101;28;20420;-73
2022/03/10 09:30:59;;;;;;;22.63;13.52;;;6.20;99.90;;;;;;5085674;28;20132;-73
2022/03/10 09:33:25;;;;;;;21.17;14.10;;;6.30;99.90;;;;;;5075405;28;20063;-77
2022/03/10 09:35:52;;;;;;;22.40;14.40;;;6.40;99.90;;;;;;5075306;28;20040;-77
2022/03/10 09:38:18;;;;;;;22.90;14.30;;;6.60;99.90;;;;;;5089820;28;20032;-73
2022/03/10 09:40:46;;;;;;;23.23;14.38;;;6.50;99.90;;;;;;5064426;28;20044;-74
2022/03/10 09:43:12;;;;;;;22.50;14.07;;;6.60;99.90;;;;;;5058786;28;20040;-73
2022/03/10 09:45:39;;;;;;;22.40;14.32;;;6.60;99.90;;;;;;5075279;28;20036;-72
2022/03/10 09:48:04;;;;;;;25.05;15.20;;;6.70;99.90;;;;;;5071794;28;20111;-72
2022/03/10 09:50:31;;;;;;;22.33;14.32;;;6.70;99.90;;;;;;5050489;28;20072;-73
2022/03/10 09:52:57;;;;;;;20.45;14.25;;;7.10;99.90;;;;;;5071834;28;20119;-72
2022/03/10 09:55:23;;;;;;;23.75;14.70;;;7.00;99.90;;;;;;5058461;28;20126;-72
2022/03/10 09:57:50;;;;;;;24.92;14.52;;;6.90;99.90;;;;;;5070531;28;20029;-75
2022/03/10 10:00:17;;;;;;;24.02;14.05;;;7.00;99.90;;;;;;5071360;28;20043;-75
2022/03/10 10:02:44;;;;;;;20.33;13.88;;;7.10;99.90;;;;;;5075214;28;20411;-75
2022/03/10 10:05:27;;;;;;;20.05;13.73;;;7.20;99.90;;;;;;5037673;28;20514;-75
2022/03/10 10:08:14;;;;;;;22.55;13.95;;;7.20;99.90;;;;;;5082686;28;20040;-76
2022/03/10 10:10:51;;;;;;;22.90;13.68;;;7.30;99.90;;;;;;5048822;28;20500;-72
2022/03/10 10:13:34;;;;;;;20.08;13.40;;;7.40;99.90;;;;;;5044878;28;20123;-71
2022/03/10 10:16:04;;;;;;;21.95;13.85;;;7.40;99.90;;;;;;5070162;28;20045;-71
2022/03/10 10:18:30;;;;;;;23.13;13.73;;;7.50;99.90;;;;;;5064789;28;20128;-71
2022/03/10 10:20:57;;;;;;;21.67;13.95;;;7.60;99.90;;;;;;5092933;28;20072;-71
2022/03/10 10:23:27;;;;;;;21.80;14.25;;;7.60;99.90;;;;;;5057850;28;20040;-71
2022/03/10 10:25:55;;;;;;;21.33;14.05;;;7.60;99.90;;;;;;5068477;28;20042;-72
2022/03/10 10:28:27;;;;;;;22.42;14.25;;;7.80;99.90;;;;;;5074319;28;20047;-71
2022/03/10 10:31:05;;;;;;;22.30;15.00;;;7.70;99.90;;;;;;5092144;28;20395;-71
2022/03/10 10:33:33;;;;;;;21.50;13.65;;;7.80;99.90;;;;;;5092722;28;20040;-72
2022/03/10 10:36:24;;;;;;;22.92;13.80;;;7.90;99.90;;;;;;5074269;28;20073;-72
2022/03/10 10:38:52;;;;;;;21.85;14.68;;;7.90;99.90;;;;;;5082056;28;20217;-71
2022/03/10 10:41:22;;;;;;;26.33;13.98;;;7.90;99.90;;;;;;5073521;28;20438;-72
2022/03/10 10:44:08;;;;;;;20.90;13.73;;;8.00;99.90;;;;;;5072745;28;20097;-71
2022/03/10 10:46:36;;;;;;;21.48;13.93;;;8.10;99.90;;;;;;5040608;28;20115;-71
2022/03/10 10:49:15;;;;;;;20.77;13.98;;;8.60;99.90;;;;;;5091585;28;20527;-71
2022/03/10 10:51:44;;;;;;;22.10;15.13;;;8.20;99.90;;;;;;5092031;28;20083;-71
2022/03/10 10:54:24;;;;;;;22.35;13.48;;;8.50;99.90;;;;;;5047186;28;20042;-71
2022/03/10 10:56:53;;;;;;;24.65;14.38;;;8.30;99.90;;;;;;5074890;28;20436;-71
2022/03/10 10:59:45;;;;;;;25.73;14.70;;;8.40;99.90;;;;;;5091998;28;20032;-71
2022/03/10 11:02:21;;;;;;;22.17;14.23;;;8.40;99.90;;;;;;5070169;28;20053;-72
2022/03/10 11:04:49;;;;;;;25.05;15.30;;;8.50;99.90;;;;;;5084780;28;20040;-75
2022/03/10 11:07:18;;;;;;;28.63;14.32;;;8.60;99.90;;;;;;5044729;28;20115;-75
2022/03/10 11:09:46;;;;;;;21.73;13.90;;;8.60;99.90;;;;;;5072983;28;20039;-75
2022/03/10 11:12:14;;;;;;;22.40;14.15;;;8.80;99.90;;;;;;5085355;28;20180;-74
2022/03/10 11:14:41;;;;;;;21.38;14.60;;;8.70;99.90;;;;;;5072399;28;20028;-78
2022/03/10 11:17:07;;;;;;;22.27;14.10;;;8.80;99.90;;;;;;5057017;28;20150;-77
2022/03/10 11:19:38;;;;;;;26.08;15.32;;;8.80;99.90;;;;;;5091468;28;20111;-77
2022/03/10 11:22:22;;;;;;;19.75;14.23;;;8.90;99.90;;;;;;5057170;28;20135;-78
2022/03/10 11:25:06;;;;;;;22.75;15.05;;;8.90;99.90;;;;;;5073931;28;20480;-77
2022/03/10 11:27:53;;;;;;;20.40;14.65;;;9.00;99.90;;;;;;5092377;28;20048;-77
2022/03/10 11:30:30;;;;;;;24.50;15.05;;;9.10;99.90;;;;;;5074298;28;20400;-78
2022/03/10 11:33:03;;;;;;;20.33;14.43;;;9.10;99.90;;;;;;5041191;28;20484;-78
2022/03/10 11:35:37;;;;;;;24.13;15.07;;;9.20;99.90;;;;;;5057894;28;20044;-77
2022/03/10 11:38:03;;;;;;;25.38;15.43;;;9.70;99.90;;;;;;5057671;28;20487;-77
2022/03/10 11:40:51;;;;;;;23.98;14.85;;;9.30;99.90;;;;;;5074350;28;20067;-77
2022/03/10 11:43:19;;;;;;;22.25;14.65;;;9.30;99.90;;;;;;5092168;28;20115;-77
2022/03/10 11:45:44;;;;;;;24.30;14.93;;;9.40;99.90;;;;;;5073966;28;20036;-77
2022/03/10 11:48:22;;;;;;;23.42;15.02;;;9.50;99.90;;;;;;5070727;28;20129;-78
2022/03/10 11:50:52;;;;;;;25.00;14.20;;;9.80;99.90;;;;;;5072839;28;20056;-78
2022/03/10 11:53:18;;;;;;;26.83;14.70;;;9.50;99.90;;;;;;5072440;28;20076;-77
2022/03/10 11:55:51;;;;;;;21.13;14.57;;;9.60;99.90;;;;;;5075694;28;20070;-73
2022/03/10 11:58:18;;;;;;;22.80;14.27;;;9.70;99.90;;;;;;5074186;28;20053;-72
2022/03/10 12:00:44;;;;;;;23.45;14.98;;;9.80;99.90;;;;;;5057435;28;20037;-72
2022/03/10 12:03:48;;;;;;;24.83;15.60;;;9.80;99.90;;;;;;5074194;28;20040;-72
2022/03/10 12:06:17;;;;;;;24.05;15.25;;;10.40;99.90;;;;;;5052958;28;20033;-72
2022/03/10 12:09:04;;;;;;;27.27;15.55;;;9.80;99.90;;;;;;5036430;28;20037;-72
2022/03/10 12:11:47;;;;;;;22.23;14.23;;;9.90;99.90;;;;;;5058900;28;20056;-72
2022/03/10 12:14:27;;;;;;;23.98;15.02;;;9.90;99.90;;;;;;5075362;28;20032;-72
2022/03/10 12:16:53;;;;;;;22.60;15.50;;;10.00;99.90;;;;;;5075157;28;20041;-72
2022/03/10 12:19:19;;;;;;;24.00;15.73;;;10.00;99.90;;;;;;5074469;28;20097;-72
2022/03/10 12:21:45;;;;;;;23.83;15.38;;;10.10;99.90;;;;;;5074030;28;20043;-72
2022/03/10 12:24:13;;;;;;;22.38;15.20;;;10.10;99.90;;;;;;5090815;28;20040;-72
2022/03/10 12:26:43;;;;;;;26.75;15.95;;;10.20;99.90;;;;;;5057502;28;20047;-72
2022/03/10 12:29:13;;;;;;;23.45;15.15;;;10.40;99.90;;;;;;5073851;28;20370;-72
2022/03/10 12:31:41;;;;;;;22.48;14.60;;;10.30;99.90;;;;;;5075076;28;20043;-72
2022/03/10 12:34:15;;;;;;;23.33;14.95;;;10.30;99.90;;;;;;5073886;28;20115;-72
2022/03/10 12:36:49;;;;;;;25.95;15.65;;;10.40;99.90;;;;;;5074951;28;20037;-73
2022/03/10 12:39:17;;;;;;;24.27;14.43;;;10.40;99.90;;;;;;5074994;28;20045;-72
2022/03/10 12:41:46;;;;;;;32.58;14.77;;;10.40;99.90;;;;;;5073429;28;20127;-72
2022/03/10 12:44:13;;;;;;;21.65;14.55;;;10.50;99.90;;;;;;5075001;28;20109;-72